createdAt,value
2022-10-02T00:00:01.168Z,99178.91
2022-10-02T00:02:41.046Z,99173.53
2022-10-02T00:05:17.956Z,99184.22
2022-10-02T00:07:49.619Z,99186.75
2022-10-02T00:10:31.358Z,99190.03
2022-10-02T00:13:04.186Z,99196.94
2022-10-02T00:15:35.951Z,99200.47
2022-10-02T00:18:12.526Z,99207.31
2022-10-02T00:20:55.817Z,99197.34
2022-10-02T00:23:44.837Z,99197.06
2022-10-02T00:26:32.515Z,99207.00
2022-10-02T00:29:08.881Z,99211.28
2022-10-02T00:32:03.183Z,99209.44
2022-10-02T00:34:43.902Z,99221.88
2022-10-02T00:37:40.209Z,99233.81
2022-10-02T00:40:26.687Z,99238.34
2022-10-02T00:43:15.882Z,99242.88
2022-10-02T00:45:50.347Z,99255.06
2022-10-02T00:48:42.754Z,99254.50
2022-10-02T00:51:35.794Z,99260.06
2022-10-02T00:54:27.123Z,99269.50
2022-10-02T00:57:11.344Z,99279.19
2022-10-02T00:59:58.126Z,99278.91
2022-10-02T01:02:53.576Z,99281.69
2022-10-02T01:05:22.383Z,99291.38
2022-10-02T01:07:54.543Z,99290.88
2022-10-02T01:10:26.512Z,99298.78
2022-10-02T01:12:57.085Z,99296.72
2022-10-02T01:15:38.846Z,99305.38
2022-10-02T01:18:08.911Z,99306.16
2022-10-02T01:20:38.847Z,99300.00
2022-10-02T01:23:18.901Z,99312.25
2022-10-02T01:25:47.394Z,99320.38
2022-10-02T01:28:16.111Z,99329.06
2022-10-02T01:30:49.518Z,99322.38
2022-10-02T01:33:18.390Z,99326.75
2022-10-02T01:35:47.715Z,99324.69
2022-10-02T01:38:20.727Z,99335.94
2022-10-02T01:40:49.122Z,99343.84
2022-10-02T01:43:22.265Z,99340.22
2022-10-02T01:46:27.519Z,99345.25
2022-10-02T01:49:25.747Z,99345.97
2022-10-02T01:52:25.062Z,99349.75
2022-10-02T01:55:23.082Z,99345.56
2022-10-02T01:57:51.505Z,99345.53
2022-10-02T02:00:23.961Z,99345.78
2022-10-02T02:03:23.400Z,99342.16
2022-10-02T02:05:57.559Z,99343.44
2022-10-02T02:08:31.890Z,99341.63
2022-10-02T02:11:03.404Z,99353.06
2022-10-02T02:13:44.048Z,99359.84
2022-10-02T02:16:23.297Z,99362.59
2022-10-02T02:19:10.193Z,99358.72
2022-10-02T02:21:46.922Z,99359.44
2022-10-02T02:24:33.685Z,99358.84
2022-10-02T02:27:05.510Z,99358.88
2022-10-02T02:29:38.672Z,99363.41
2022-10-02T02:32:11.094Z,99357.16
2022-10-02T02:34:52.582Z,99353.72
2022-10-02T02:37:25.132Z,99347.78
2022-10-02T02:39:59.964Z,99353.16
2022-10-02T02:42:32.567Z,99350.25
2022-10-02T02:45:07.166Z,99352.00
2022-10-02T02:47:47.135Z,99350.38
2022-10-02T02:50:31.255Z,99347.25
2022-10-02T02:53:05.290Z,99347.47
2022-10-02T02:55:45.040Z,99352.81
2022-10-02T02:58:28.626Z,99338.41
2022-10-02T03:00:57.354Z,99337.59
2022-10-02T03:03:25.863Z,99335.91
2022-10-02T03:06:17.239Z,99331.59
2022-10-02T03:08:47.019Z,99342.16
2022-10-02T03:11:33.380Z,99335.34
2022-10-02T03:14:34.092Z,99325.19
2022-10-02T03:17:55.920Z,99330.09
2022-10-02T03:20:45.362Z,99325.13
2022-10-02T03:23:37.705Z,99326.56
2022-10-02T03:26:28.075Z,99322.84
2022-10-02T03:29:01.308Z,99309.94
2022-10-02T03:31:34.094Z,99303.09
2022-10-02T03:34:04.545Z,99302.97
2022-10-02T03:36:34.668Z,99297.31
2022-10-02T03:39:24.212Z,99287.81
2022-10-02T03:41:53.073Z,99279.97
2022-10-02T03:44:21.739Z,99271.91
2022-10-02T03:46:50.418Z,99275.41
2022-10-02T03:49:19.056Z,99266.81
2022-10-02T03:51:47.727Z,99269.44
2022-10-02T03:54:21.879Z,99270.31
2022-10-02T03:57:04.110Z,99264.56
2022-10-02T03:59:58.817Z,99259.56
2022-10-02T04:02:45.979Z,99258.69
2022-10-02T04:05:23.281Z,99260.00
2022-10-02T04:07:56.182Z,99251.66
2022-10-02T04:10:44.069Z,99247.97
2022-10-02T04:13:28.511Z,99238.34
2022-10-02T04:16:04.857Z,99232.22
2022-10-02T04:18:38.732Z,99224.31
2022-10-02T04:21:38.227Z,99219.44
2022-10-02T04:24:20.130Z,99215.53
2022-10-02T04:26:55.848Z,99219.22
2022-10-02T04:29:29.709Z,99226.59
2022-10-02T04:32:19.355Z,99229.13
2022-10-02T04:34:47.903Z,99218.47
2022-10-02T04:37:28.115Z,99219.53
2022-10-02T04:40:02.257Z,99208.44
2022-10-02T04:42:39.105Z,99198.56
2022-10-02T04:45:32.062Z,99200.31
2022-10-02T04:48:31.795Z,99192.25
2022-10-02T04:51:21.098Z,99195.19
2022-10-02T04:54:21.285Z,99201.34
2022-10-02T04:57:08.101Z,99197.13
2022-10-02T05:00:11.528Z,99199.59
2022-10-02T05:03:04.118Z,99188.41
2022-10-02T05:06:02.659Z,99183.19
2022-10-02T05:08:46.425Z,99178.50
2022-10-02T05:11:14.744Z,99167.19
2022-10-02T05:14:14.555Z,99148.53
2022-10-02T05:17:10.143Z,99148.41
2022-10-02T05:19:48.943Z,99143.09
2022-10-02T05:22:23.265Z,99138.34
2022-10-02T05:25:16.341Z,99137.50
2022-10-02T05:27:44.630Z,99139.69
2022-10-02T05:30:15.914Z,99139.50
2022-10-02T05:33:04.656Z,99127.97
2022-10-02T05:35:48.262Z,99130.03
2022-10-02T05:38:50.203Z,99115.50
2022-10-02T05:41:32.416Z,99110.97
2022-10-02T05:44:17.764Z,99104.13
2022-10-02T05:46:54.245Z,99107.16
2022-10-02T05:49:32.010Z,99096.44
2022-10-02T05:52:35.667Z,99086.09
2022-10-02T05:55:34.635Z,99078.94
2022-10-02T05:58:37.971Z,99087.19
2022-10-02T06:01:36.252Z,99102.59
2022-10-02T06:04:29.393Z,99109.81
2022-10-02T06:07:07.747Z,99105.41
2022-10-02T06:10:05.278Z,99091.94
2022-10-02T06:12:56.821Z,99075.41
2022-10-02T06:15:35.969Z,99069.56
2022-10-02T06:18:12.820Z,99061.34
2022-10-02T06:20:56.592Z,99062.31
2022-10-02T06:23:52.016Z,99056.50
2022-10-02T06:26:39.085Z,99061.53
2022-10-02T06:29:19.887Z,99071.19
2022-10-02T06:32:06.633Z,99072.16
2022-10-02T06:34:35.057Z,99064.44
2022-10-02T06:37:32.997Z,99068.78
2022-10-02T06:40:04.844Z,99077.38
2022-10-02T06:42:56.940Z,99062.50
2022-10-02T06:45:40.121Z,99069.84
2022-10-02T06:48:39.494Z,99071.97
2022-10-02T06:51:25.939Z,99081.25
2022-10-02T06:54:20.073Z,99077.34
2022-10-02T06:57:06.375Z,99075.66
2022-10-02T06:59:43.464Z,99071.78
2022-10-02T07:02:34.927Z,99071.78
2022-10-02T07:05:40.353Z,99063.28
2022-10-02T07:08:40.110Z,99065.75
2022-10-02T07:11:33.772Z,99074.78
2022-10-02T07:14:14.406Z,99069.75
2022-10-02T07:17:07.521Z,99073.88
2022-10-02T07:20:19.731Z,99068.31
2022-10-02T07:23:02.720Z,99061.19
2022-10-02T07:26:04.866Z,99068.91
2022-10-02T07:28:57.378Z,99071.56
2022-10-02T07:31:34.857Z,99072.88
2022-10-02T07:34:07.404Z,99076.03
2022-10-02T07:37:16.930Z,99072.00
2022-10-02T07:39:55.210Z,99062.06
2022-10-02T07:42:45.432Z,99066.16
2022-10-02T07:45:43.937Z,99067.69
2022-10-02T07:48:41.527Z,99066.69
2022-10-02T07:51:36.300Z,99074.59
2022-10-02T07:54:35.390Z,99062.38
2022-10-02T07:57:27.094Z,99063.94
2022-10-02T08:00:14.056Z,99055.56
2022-10-02T08:03:00.626Z,99060.94
2022-10-02T08:05:34.601Z,99056.59
2022-10-02T08:08:24.654Z,99055.31
2022-10-02T08:11:25.191Z,99055.31
2022-10-02T08:13:59.363Z,99053.28
2022-10-02T08:16:36.290Z,99049.72
2022-10-02T08:19:14.392Z,99036.97
2022-10-02T08:21:49.040Z,99030.06
2022-10-02T08:24:32.059Z,99019.59
2022-10-02T08:27:23.948Z,99019.06
2022-10-02T08:30:07.472Z,99015.75
2022-10-02T08:32:38.030Z,99011.66
2022-10-02T08:35:18.498Z,99013.19
2022-10-02T08:38:14.040Z,99011.91
2022-10-02T08:40:47.900Z,99004.47
2022-10-02T08:44:09.695Z,99001.16
2022-10-02T08:46:57.229Z,99006.53
2022-10-02T08:49:50.002Z,99008.03
2022-10-02T08:53:00.121Z,99012.38
2022-10-02T08:56:00.772Z,99024.88
2022-10-02T08:58:47.097Z,99011.38
2022-10-02T09:01:40.350Z,99021.84
2022-10-02T09:04:39.244Z,99019.81
2022-10-02T09:07:31.760Z,99015.47
2022-10-02T09:10:46.659Z,99013.19
2022-10-02T09:13:46.986Z,99022.09
2022-10-02T09:16:55.040Z,99011.66
2022-10-02T09:19:42.254Z,99003.75
2022-10-02T09:22:49.518Z,99002.22
2022-10-02T09:25:38.916Z,99008.38
2022-10-02T09:28:28.938Z,99004.28
2022-10-02T09:31:21.444Z,99005.78
2022-10-02T09:34:11.308Z,98998.91
2022-10-02T09:37:22.131Z,98994.81
2022-10-02T09:39:59.747Z,98999.66
2022-10-02T09:42:46.211Z,99004.50
2022-10-02T09:45:37.329Z,99006.56
2022-10-02T09:48:36.653Z,99012.16
2022-10-02T09:51:23.710Z,99014.75
2022-10-02T09:54:10.783Z,99020.13
2022-10-02T09:57:18.806Z,99020.13
2022-10-02T10:00:06.263Z,99027.78
2022-10-02T10:02:43.683Z,99023.47
2022-10-02T10:05:33.885Z,99043.09
2022-10-02T10:08:14.753Z,99033.16
2022-10-02T10:10:51.093Z,99038.78
2022-10-02T10:13:51.559Z,99040.03
2022-10-02T10:16:52.087Z,99040.03
2022-10-02T10:20:07.589Z,99038.50
2022-10-02T10:23:04.527Z,99046.69
2022-10-02T10:25:56.868Z,99038.81
2022-10-02T10:29:00.534Z,99037.28
2022-10-02T10:32:05.497Z,99046.97
2022-10-02T10:35:21.690Z,99053.88
2022-10-02T10:38:20.625Z,99047.28
2022-10-02T10:41:26.060Z,99047.28
2022-10-02T10:44:09.448Z,99059.03
2022-10-02T10:47:01.270Z,99060.31
2022-10-02T10:50:06.286Z,99062.34
2022-10-02T10:52:58.874Z,99063.63
2022-10-02T10:55:49.080Z,99067.72
2022-10-02T10:58:33.548Z,99076.13
2022-10-02T11:01:15.257Z,99066.44
2022-10-02T11:04:07.927Z,99073.34
2022-10-02T11:06:57.627Z,99072.56
2022-10-02T11:09:44.021Z,99066.97
2022-10-02T11:12:54.605Z,99077.44
2022-10-02T11:15:40.647Z,99076.66
2022-10-02T11:18:18.129Z,99076.66
2022-10-02T11:20:52.111Z,99087.88
2022-10-02T11:23:38.573Z,99087.38
2022-10-02T11:26:44.912Z,99092.97
2022-10-02T11:29:39.223Z,99110.03
2022-10-02T11:32:29.014Z,99108.00
2022-10-02T11:35:16.270Z,99113.59
2022-10-02T11:38:03.131Z,99126.34
2022-10-02T11:40:50.711Z,99127.88
2022-10-02T11:43:41.751Z,99146.00
2022-10-02T11:46:36.303Z,99136.06
2022-10-02T11:49:39.718Z,99149.31
2022-10-02T11:52:20.145Z,99149.31
2022-10-02T11:55:09.058Z,99163.34
2022-10-02T11:57:48.947Z,99166.16
2022-10-02T12:00:36.950Z,99177.38
2022-10-02T12:03:19.815Z,99192.16
2022-10-02T12:05:59.147Z,99202.09
2022-10-02T12:08:51.734Z,99203.38
2022-10-02T12:11:58.713Z,99211.81
2022-10-02T12:14:29.702Z,99221.75
2022-10-02T12:17:19.246Z,99217.41
2022-10-02T12:20:48.720Z,99237.81
2022-10-02T12:23:53.144Z,99231.44
2022-10-02T12:26:56.324Z,99243.44
2022-10-02T12:29:47.584Z,99238.34
2022-10-02T12:32:39.435Z,99244.72
2022-10-02T12:35:36.819Z,99251.06
2022-10-02T12:38:32.294Z,99251.84
2022-10-02T12:41:00.678Z,99263.81
2022-10-02T12:44:02.407Z,99277.09
2022-10-02T12:46:58.400Z,99285.00
2022-10-02T12:49:56.734Z,99287.78
2022-10-02T12:52:55.224Z,99290.59
2022-10-02T12:55:58.568Z,99294.16
2022-10-02T12:59:17.207Z,99292.66
2022-10-02T13:02:37.249Z,99299.78
2022-10-02T13:05:35.443Z,99299.03
2022-10-02T13:08:28.577Z,99303.34
2022-10-02T13:11:17.028Z,99307.44
2022-10-02T13:14:01.646Z,99308.97
2022-10-02T13:16:33.526Z,99319.41
2022-10-02T13:19:21.251Z,99315.84
2022-10-02T13:22:02.039Z,99332.69
2022-10-02T13:24:45.794Z,99338.31
2022-10-02T13:27:44.554Z,99337.00
2022-10-02T13:30:15.809Z,99336.25
2022-10-02T13:33:20.871Z,99340.59
2022-10-02T13:36:05.557Z,99338.31
2022-10-02T13:38:48.713Z,99343.16
2022-10-02T13:41:52.226Z,99340.34
2022-10-02T13:44:34.285Z,99347.47
2022-10-02T13:47:34.350Z,99356.41
2022-10-02T13:50:20.142Z,99357.19
2022-10-02T13:53:05.506Z,99359.97
2022-10-02T13:55:49.811Z,99359.47
2022-10-02T13:58:20.783Z,99367.13
2022-10-02T14:00:59.416Z,99375.03
2022-10-02T14:03:51.566Z,99373.75
2022-10-02T14:06:42.889Z,99380.88
2022-10-02T14:09:35.129Z,99388.78
2022-10-02T14:12:26.850Z,99387.50
2022-10-02T14:15:31.836Z,99388.50
2022-10-02T14:18:34.701Z,99381.88
2022-10-02T14:21:23.175Z,99382.16
2022-10-02T14:24:04.722Z,99376.56
2022-10-02T14:26:57.291Z,99372.75
2022-10-02T14:29:32.914Z,99366.16
2022-10-02T14:32:22.068Z,99370.25
2022-10-02T14:34:56.671Z,99371.03
2022-10-02T14:37:31.060Z,99368.50
2022-10-02T14:40:03.291Z,99370.78
2022-10-02T14:42:45.275Z,99364.91
2022-10-02T14:45:29.882Z,99363.16
2022-10-02T14:48:11.221Z,99350.16
2022-10-02T14:50:48.500Z,99355.53
2022-10-02T14:53:59.983Z,99345.09
2022-10-02T14:56:31.346Z,99347.63
2022-10-02T14:59:12.094Z,99352.19
2022-10-02T15:02:10.522Z,99352.94
2022-10-02T15:04:41.577Z,99352.69
2022-10-02T15:07:16.387Z,99353.72
2022-10-02T15:09:59.741Z,99353.47
2022-10-02T15:13:10.163Z,99345.56
2022-10-02T15:15:48.555Z,99346.09
2022-10-02T15:18:42.866Z,99331.31
2022-10-02T15:21:27.829Z,99326.22
2022-10-02T15:24:13.336Z,99323.41
2022-10-02T15:26:54.268Z,99319.09
2022-10-02T15:29:58.502Z,99324.69
2022-10-02T15:33:07.474Z,99316.28
2022-10-02T15:36:10.846Z,99312.72
2022-10-02T15:38:52.734Z,99308.66
2022-10-02T15:41:38.932Z,99301.00
2022-10-02T15:44:17.378Z,99297.44
2022-10-02T15:46:57.550Z,99287.25
2022-10-02T15:49:37.724Z,99284.94
2022-10-02T15:52:31.974Z,99276.03
2022-10-02T15:55:35.981Z,99275.25
2022-10-02T15:58:28.931Z,99253.38
2022-10-02T16:01:06.994Z,99251.31
2022-10-02T16:03:47.499Z,99247.75
2022-10-02T16:07:03.152Z,99253.38
2022-10-02T16:10:08.357Z,99236.56
2022-10-02T16:13:12.526Z,99239.34
2022-10-02T16:16:09.826Z,99229.41
2022-10-02T16:19:14.595Z,99234.25
2022-10-02T16:21:45.678Z,99238.34
2022-10-02T16:24:19.680Z,99234.78
2022-10-02T16:27:12.633Z,99224.84
2022-10-02T16:30:14.191Z,99225.34
2022-10-02T16:33:19.104Z,99221.53
2022-10-02T16:35:54.324Z,99230.72
2022-10-02T16:38:46.774Z,99229.19
2022-10-02T16:41:37.842Z,99228.44
2022-10-02T16:44:25.102Z,99235.31
2022-10-02T16:47:08.299Z,99230.97
2022-10-02T16:50:00.375Z,99233.78
2022-10-02T16:52:35.090Z,99233.03
2022-10-02T16:55:23.264Z,99242.19
2022-10-02T16:58:01.423Z,99246.28
2022-10-02T17:00:42.008Z,99248.31
2022-10-02T17:03:21.350Z,99243.97
2022-10-02T17:05:55.353Z,99251.09
2022-10-02T17:08:49.401Z,99251.09
2022-10-02T17:11:31.299Z,99250.06
2022-10-02T17:14:26.318Z,99253.63
2022-10-02T17:17:12.408Z,99248.81
2022-10-02T17:19:51.366Z,99241.66
2022-10-02T17:22:43.393Z,99253.91
2022-10-02T17:25:28.629Z,99250.34
2022-10-02T17:28:06.415Z,99246.28
2022-10-02T17:31:10.097Z,99249.31
2022-10-02T17:33:52.780Z,99229.72
2022-10-02T17:36:37.776Z,99238.88
2022-10-02T17:39:28.460Z,99237.59
2022-10-02T17:42:17.874Z,99235.56
2022-10-02T17:44:58.050Z,99229.94
2022-10-02T17:47:45.426Z,99231.47
2022-10-02T17:50:32.688Z,99230.72
2022-10-02T17:53:43.631Z,99234.28
2022-10-02T17:56:50.884Z,99219.00
2022-10-02T17:59:35.801Z,99218.22
2022-10-02T18:02:36.974Z,99215.44
2022-10-02T18:05:42.281Z,99219.75
2022-10-02T18:08:35.218Z,99220.50
2022-10-02T18:11:56.992Z,99208.53
2022-10-02T18:14:49.293Z,99206.25
2022-10-02T18:17:42.346Z,99213.91
2022-10-02T18:20:36.216Z,99221.03
2022-10-02T18:23:17.049Z,99211.34
2022-10-02T18:26:14.419Z,99213.38
2022-10-02T18:28:58.830Z,99216.94
2022-10-02T18:31:55.233Z,99211.88
2022-10-02T18:34:33.387Z,99211.09
2022-10-02T18:37:19.706Z,99204.50
2022-10-02T18:40:11.244Z,99207.28
2022-10-02T18:42:54.480Z,99213.41
2022-10-02T18:45:46.068Z,99209.59
2022-10-02T18:48:32.378Z,99212.88
2022-10-02T18:51:19.443Z,99212.63
2022-10-02T18:54:16.411Z,99209.59
2022-10-02T18:57:02.887Z,99205.25
2022-10-02T18:59:53.770Z,99198.91
2022-10-02T19:02:35.346Z,99198.13
2022-10-02T19:05:25.368Z,99202.22
2022-10-02T19:08:05.846Z,99196.38
2022-10-02T19:10:34.211Z,99192.56
2022-10-02T19:13:17.965Z,99186.69
2022-10-02T19:15:49.387Z,99187.22
2022-10-02T19:18:27.868Z,99186.44
2022-10-02T19:21:07.558Z,99183.41
2022-10-02T19:23:51.558Z,99175.50
2022-10-02T19:26:24.514Z,99171.72
2022-10-02T19:28:57.286Z,99159.50
2022-10-02T19:31:30.193Z,99160.25
2022-10-02T19:34:03.359Z,99168.66
2022-10-02T19:36:43.742Z,99166.84
2022-10-02T19:39:23.654Z,99163.28
2022-10-02T19:41:56.988Z,99161.78
2022-10-02T19:44:32.407Z,99157.44
2022-10-02T19:47:04.647Z,99157.94
2022-10-02T19:49:40.319Z,99155.66
2022-10-02T19:52:42.357Z,99164.84
2022-10-02T19:55:28.151Z,99153.63
2022-10-02T19:58:05.442Z,99162.03
2022-10-02T20:00:38.925Z,99160.00
2022-10-02T20:03:15.999Z,99162.53
2022-10-02T20:05:46.211Z,99164.84
2022-10-02T20:08:46.172Z,99160.00
2022-10-02T20:11:49.868Z,99156.69
2022-10-02T20:14:29.948Z,99153.88
2022-10-02T20:17:10.309Z,99151.31
2022-10-02T20:19:41.254Z,99148.53
2022-10-02T20:22:17.866Z,99146.50
2022-10-02T20:25:10.981Z,99150.06
2022-10-02T20:28:18.250Z,99146.00
2022-10-02T20:30:55.541Z,99148.00
2022-10-02T20:33:41.912Z,99148.00
2022-10-02T20:36:53.798Z,99148.81
2022-10-02T20:39:28.179Z,99156.41
2022-10-02T20:42:07.008Z,99156.94
2022-10-02T20:44:38.350Z,99143.69
2022-10-02T20:47:45.137Z,99148.53
2022-10-02T20:50:17.181Z,99158.44
2022-10-02T20:53:15.515Z,99149.81
2022-10-02T20:56:11.595Z,99145.72
2022-10-02T20:59:07.825Z,99151.31
2022-10-02T21:02:09.168Z,99150.06
2022-10-02T21:05:11.444Z,99152.84
2022-10-02T21:08:10.300Z,99151.09
2022-10-02T21:10:57.223Z,99159.50
2022-10-02T21:13:47.006Z,99158.22
2022-10-02T21:16:52.539Z,99157.44
2022-10-02T21:19:45.378Z,99163.31
2022-10-02T21:23:01.233Z,99159.22
2022-10-02T21:25:36.572Z,99155.91
2022-10-02T21:28:28.509Z,99161.00
2022-10-02T21:31:39.925Z,99158.69
2022-10-02T21:34:11.414Z,99155.38
2022-10-02T21:37:28.018Z,99158.19
2022-10-02T21:40:11.334Z,99160.47
2022-10-02T21:43:06.224Z,99152.31
2022-10-02T21:46:02.272Z,99154.06
2022-10-02T21:49:15.402Z,99153.56
2022-10-02T21:52:21.230Z,99161.44
2022-10-02T21:55:14.420Z,99160.94
2022-10-02T21:58:16.708Z,99162.72
2022-10-02T22:01:26.505Z,99163.75
2022-10-02T22:04:22.281Z,99160.94
2022-10-02T22:06:59.441Z,99168.06
2022-10-02T22:09:58.668Z,99162.72
2022-10-02T22:12:41.705Z,99161.44
2022-10-02T22:15:25.574Z,99169.06
2022-10-02T22:18:20.053Z,99168.56
2022-10-02T22:21:35.356Z,99171.59
2022-10-02T22:24:19.149Z,99176.69
2022-10-02T22:27:04.954Z,99182.78
2022-10-02T22:29:55.541Z,99197.56
2022-10-02T22:33:07.557Z,99199.84
2022-10-02T22:36:13.195Z,99214.09
2022-10-02T22:38:50.592Z,99207.75
2022-10-02T22:41:28.173Z,99213.34
2022-10-02T22:43:56.501Z,99221.25
2022-10-02T22:46:57.369Z,99226.06
2022-10-02T22:49:33.765Z,99223.53
2022-10-02T22:52:11.873Z,99299.44
2022-10-02T22:54:50.562Z,99318.81
2022-10-02T22:57:18.923Z,99312.72
2022-10-02T22:59:59.830Z,99301.78
2022-10-02T23:02:47.281Z,99309.44
2022-10-02T23:05:47.285Z,99303.09
2022-10-02T23:08:15.697Z,99302.53
2022-10-02T23:11:07.920Z,99312.19
2022-10-02T23:13:47.910Z,99303.25
2022-10-02T23:16:22.051Z,99310.13
2022-10-02T23:18:52.248Z,99314.44
2022-10-02T23:21:29.461Z,99320.50
2022-10-02T23:24:48.356Z,99323.28
2022-10-02T23:27:42.189Z,99329.38
2022-10-02T23:30:18.780Z,99324.53
2022-10-02T23:33:20.067Z,99332.66
2022-10-02T23:36:02.193Z,99340.47
2022-10-02T23:38:49.628Z,99331.31
2022-10-02T23:41:48.031Z,99333.84
2022-10-02T23:44:33.013Z,99342.25
2022-10-02T23:47:21.823Z,99339.97
2022-10-02T23:49:54.727Z,99339.97
2022-10-02T23:52:50.725Z,99345.53
2022-10-02T23:55:46.938Z,99366.41
2022-10-02T23:58:49.955Z,99387.25
